sensor_id;sensor_type;location;lat;lon;timestamp;temperature;humidity
7044;DHT22;57890;52.36301240;9.76001620;2022-08-03T00:00:53;22.90;87.10
7044;DHT22;57890;52.36301240;9.76001620;2022-08-03T00:03:20;22.90;87.10
7044;DHT22;57890;52.36301240;9.76001620;2022-08-03T00:05:48;22.80;87.10
7044;DHT22;57890;52.36301240;9.76001620;2022-08-03T00:08:16;22.80;87.20
7044;DHT22;57890;52.36301240;9.76001620;2022-08-03T00:10:43;22.80;87.30
7044;DHT22;57890;52.36301240;9.76001620;2022-08-03T00:13:09;22.80;87.40
7044;DHT22;57890;52.36301240;9.76001620;2022-08-03T00:15:38;22.80;87.40
7044;DHT22;57890;52.36301240;9.76001620;2022-08-03T00:18:05;22.70;87.30
7044;DHT22;57890;52.36301240;9.76001620;2022-08-03T00:20:32;22.70;87.40
7044;DHT22;57890;52.36301240;9.76001620;2022-08-03T00:22:59;22.70;87.40
7044;DHT22;57890;52.36301240;9.76001620;2022-08-03T00:25:27;22.70;87.50
7044;DHT22;57890;52.36301240;9.76001620;2022-08-03T00:27:54;22.70;87.50
7044;DHT22;57890;52.36301240;9.76001620;2022-08-03T00:30:21;22.60;87.40
7044;DHT22;57890;52.36301240;9.76001620;2022-08-03T00:32:47;22.60;87.50
7044;DHT22;57890;52.36301240;9.76001620;2022-08-03T00:35:14;22.60;87.60
7044;DHT22;57890;52.36301240;9.76001620;2022-08-03T00:37:41;22.50;87.50
7044;DHT22;57890;52.36301240;9.76001620;2022-08-03T00:40:10;22.50;87.60
7044;DHT22;57890;52.36301240;9.76001620;2022-08-03T00:42:47;22.50;87.70
7044;DHT22;57890;52.36301240;9.76001620;2022-08-03T00:45:15;22.50;87.90
7044;DHT22;57890;52.36301240;9.76001620;2022-08-03T00:47:42;22.50;87.90
7044;DHT22;57890;52.36301240;9.76001620;2022-08-03T00:50:09;22.50;88.00
7044;DHT22;57890;52.36301240;9.76001620;2022-08-03T00:52:36;22.50;88.00
7044;DHT22;57890;52.36301240;9.76001620;2022-08-03T00:55:04;22.50;88.00
7044;DHT22;57890;52.36301240;9.76001620;2022-08-03T00:57:31;22.50;88.10
7044;DHT22;57890;52.36301240;9.76001620;2022-08-03T01:00:00;22.50;88.00
7044;DHT22;57890;52.36301240;9.76001620;2022-08-03T01:02:27;22.50;88.10
7044;DHT22;57890;52.36301240;9.76001620;2022-08-03T01:04:54;22.40;88.00
7044;DHT22;57890;52.36301240;9.76001620;2022-08-03T01:07:28;22.40;88.00
7044;DHT22;57890;52.36301240;9.76001620;2022-08-03T01:10:00;22.40;88.20
7044;DHT22;57890;52.36301240;9.76001620;2022-08-03T01:12:33;22.40;88.20
7044;DHT22;57890;52.36301240;9.76001620;2022-08-03T01:15:15;22.40;88.20
7044;DHT22;57890;52.36301240;9.76001620;2022-08-03T01:17:50;22.30;88.20
7044;DHT22;57890;52.36301240;9.76001620;2022-08-03T01:20:22;22.30;88.20
7044;DHT22;57890;52.36301240;9.76001620;2022-08-03T01:23:14;22.20;88.10
7044;DHT22;57890;52.36301240;9.76001620;2022-08-03T01:26:02;22.30;88.40
7044;DHT22;57890;52.36301240;9.76001620;2022-08-03T01:28:55;22.20;88.30
7044;DHT22;57890;52.36301240;9.76001620;2022-08-03T01:31:28;22.20;88.30
7044;DHT22;57890;52.36301240;9.76001620;2022-08-03T01:34:01;22.20;88.40
7044;DHT22;57890;52.36301240;9.76001620;2022-08-03T01:36:31;22.10;88.30
7044;DHT22;57890;52.36301240;9.76001620;2022-08-03T01:39:00;22.10;88.40
7044;DHT22;57890;52.36301240;9.76001620;2022-08-03T01:41:30;22.10;88.40
7044;DHT22;57890;52.36301240;9.76001620;2022-08-03T01:44:00;22.10;88.50
7044;DHT22;57890;52.36301240;9.76001620;2022-08-03T01:46:30;22.00;89.10
7044;DHT22;57890;52.36301240;9.76001620;2022-08-03T01:48:58;22.00;88.50
7044;DHT22;57890;52.36301240;9.76001620;2022-08-03T01:51:26;22.00;88.40
7044;DHT22;57890;52.36301240;9.76001620;2022-08-03T01:53:54;21.90;88.40
7044;DHT22;57890;52.36301240;9.76001620;2022-08-03T01:56:23;22.00;88.70
7044;DHT22;57890;52.36301240;9.76001620;2022-08-03T01:58:52;22.00;88.70
7044;DHT22;57890;52.36301240;9.76001620;2022-08-03T02:01:20;21.90;88.60
7044;DHT22;57890;52.36301240;9.76001620;2022-08-03T02:03:50;21.90;88.70
7044;DHT22;57890;52.36301240;9.76001620;2022-08-03T02:06:19;21.90;88.70
7044;DHT22;57890;52.36301240;9.76001620;2022-08-03T02:08:47;21.90;88.60
7044;DHT22;57890;52.36301240;9.76001620;2022-08-03T02:11:15;21.90;88.70
7044;DHT22;57890;52.36301240;9.76001620;2022-08-03T02:13:42;21.80;88.60
7044;DHT22;57890;52.36301240;9.76001620;2022-08-03T02:16:12;21.80;88.70
7044;DHT22;57890;52.36301240;9.76001620;2022-08-03T02:18:40;21.80;88.70
7044;DHT22;57890;52.36301240;9.76001620;2022-08-03T02:21:09;21.80;88.70
7044;DHT22;57890;52.36301240;9.76001620;2022-08-03T02:23:37;21.80;88.70
7044;DHT22;57890;52.36301240;9.76001620;2022-08-03T02:26:08;21.80;88.70
7044;DHT22;57890;52.36301240;9.76001620;2022-08-03T02:28:40;21.70;88.70
7044;DHT22;57890;52.36301240;9.76001620;2022-08-03T02:31:19;21.70;88.80
7044;DHT22;57890;52.36301240;9.76001620;2022-08-03T02:33:52;21.70;88.90
7044;DHT22;57890;52.36301240;9.76001620;2022-08-03T02:36:24;21.70;88.80
7044;DHT22;57890;52.36301240;9.76001620;2022-08-03T02:38:54;21.70;88.80
7044;DHT22;57890;52.36301240;9.76001620;2022-08-03T02:41:26;21.70;88.80
7044;DHT22;57890;52.36301240;9.76001620;2022-08-03T02:43:55;21.60;88.70
7044;DHT22;57890;52.36301240;9.76001620;2022-08-03T02:46:27;21.60;88.70
7044;DHT22;57890;52.36301240;9.76001620;2022-08-03T02:48:56;21.60;88.70
7044;DHT22;57890;52.36301240;9.76001620;2022-08-03T02:51:27;21.50;88.50
7044;DHT22;57890;52.36301240;9.76001620;2022-08-03T02:53:56;21.50;88.70
7044;DHT22;57890;52.36301240;9.76001620;2022-08-03T02:56:26;21.40;88.60
7044;DHT22;57890;52.36301240;9.76001620;2022-08-03T02:58:55;21.40;88.70
7044;DHT22;57890;52.36301240;9.76001620;2022-08-03T03:01:25;21.30;88.60
7044;DHT22;57890;52.36301240;9.76001620;2022-08-03T03:03:54;21.30;88.60
7044;DHT22;57890;52.36301240;9.76001620;2022-08-03T03:06:21;21.20;88.60
7044;DHT22;57890;52.36301240;9.76001620;2022-08-03T03:08:51;21.20;88.70
7044;DHT22;57890;52.36301240;9.76001620;2022-08-03T03:11:20;21.20;88.70
7044;DHT22;57890;52.36301240;9.76001620;2022-08-03T03:13:48;21.10;88.70
7044;DHT22;57890;52.36301240;9.76001620;2022-08-03T03:16:16;21.10;88.70
7044;DHT22;57890;52.36301240;9.76001620;2022-08-03T03:18:45;21.10;88.80
7044;DHT22;57890;52.36301240;9.76001620;2022-08-03T03:21:15;21.00;88.80
7044;DHT22;57890;52.36301240;9.76001620;2022-08-03T03:23:43;21.00;88.80
7044;DHT22;57890;52.36301240;9.76001620;2022-08-03T03:26:13;21.00;88.80
7044;DHT22;57890;52.36301240;9.76001620;2022-08-03T03:28:40;20.90;88.80
7044;DHT22;57890;52.36301240;9.76001620;2022-08-03T03:31:08;20.90;88.80
7044;DHT22;57890;52.36301240;9.76001620;2022-08-03T03:33:36;20.80;88.80
7044;DHT22;57890;52.36301240;9.76001620;2022-08-03T03:36:04;20.80;88.90
7044;DHT22;57890;52.36301240;9.76001620;2022-08-03T03:38:32;20.80;89.70
7044;DHT22;57890;52.36301240;9.76001620;2022-08-03T03:40:59;20.80;89.00
7044;DHT22;57890;52.36301240;9.76001620;2022-08-03T03:43:27;20.70;89.00
7044;DHT22;57890;52.36301240;9.76001620;2022-08-03T03:45:56;20.70;89.00
7044;DHT22;57890;52.36301240;9.76001620;2022-08-03T03:48:23;20.70;89.20
7044;DHT22;57890;52.36301240;9.76001620;2022-08-03T03:50:51;20.60;89.10
7044;DHT22;57890;52.36301240;9.76001620;2022-08-03T03:53:18;20.60;89.10
7044;DHT22;57890;52.36301240;9.76001620;2022-08-03T03:55:45;20.60;89.30
7044;DHT22;57890;52.36301240;9.76001620;2022-08-03T03:58:12;20.60;90.00
7044;DHT22;57890;52.36301240;9.76001620;2022-08-03T04:00:40;20.60;89.50
7044;DHT22;57890;52.36301240;9.76001620;2022-08-03T04:03:09;20.60;89.40
7044;DHT22;57890;52.36301240;9.76001620;2022-08-03T04:05:37;20.50;89.30
7044;DHT22;57890;52.36301240;9.76001620;2022-08-03T04:08:22;20.50;89.40
7044;DHT22;57890;52.36301240;9.76001620;2022-08-03T04:11:11;20.50;89.40
7044;DHT22;57890;52.36301240;9.76001620;2022-08-03T04:13:41;20.60;89.60
7044;DHT22;57890;52.36301240;9.76001620;2022-08-03T04:16:13;20.60;89.80
7044;DHT22;57890;52.36301240;9.76001620;2022-08-03T04:18:45;20.60;90.00
7044;DHT22;57890;52.36301240;9.76001620;2022-08-03T04:21:14;20.70;90.00
7044;DHT22;57890;52.36301240;9.76001620;2022-08-03T04:23:45;20.70;90.00
7044;DHT22;57890;52.36301240;9.76001620;2022-08-03T04:26:14;20.80;90.10
7044;DHT22;57890;52.36301240;9.76001620;2022-08-03T04:28:44;20.80;90.10
7044;DHT22;57890;52.36301240;9.76001620;2022-08-03T04:31:13;20.90;90.10
7044;DHT22;57890;52.36301240;9.76001620;2022-08-03T04:33:43;20.90;90.10
7044;DHT22;57890;52.36301240;9.76001620;2022-08-03T04:36:15;20.90;90.10
7044;DHT22;57890;52.36301240;9.76001620;2022-08-03T04:38:52;21.00;90.10
7044;DHT22;57890;52.36301240;9.76001620;2022-08-03T04:41:22;21.00;90.10
7044;DHT22;57890;52.36301240;9.76001620;2022-08-03T04:43:51;21.10;90.10
7044;DHT22;57890;52.36301240;9.76001620;2022-08-03T04:46:21;21.10;90.10
7044;DHT22;57890;52.36301240;9.76001620;2022-08-03T04:48:49;21.20;90.10
7044;DHT22;57890;52.36301240;9.76001620;2022-08-03T04:51:16;21.20;90.10
7044;DHT22;57890;52.36301240;9.76001620;2022-08-03T04:53:44;21.20;90.10
7044;DHT22;57890;52.36301240;9.76001620;2022-08-03T04:56:11;21.30;90.10
7044;DHT22;57890;52.36301240;9.76001620;2022-08-03T04:58:37;21.30;90.10
7044;DHT22;57890;52.36301240;9.76001620;2022-08-03T05:01:04;21.30;90.00
7044;DHT22;57890;52.36301240;9.76001620;2022-08-03T05:03:33;21.30;90.10
7044;DHT22;57890;52.36301240;9.76001620;2022-08-03T05:06:00;21.40;90.10
7044;DHT22;57890;52.36301240;9.76001620;2022-08-03T05:08:27;21.40;90.00
7044;DHT22;57890;52.36301240;9.76001620;2022-08-03T05:10:54;21.40;90.10
7044;DHT22;57890;52.36301240;9.76001620;2022-08-03T05:13:21;21.40;90.00
7044;DHT22;57890;52.36301240;9.76001620;2022-08-03T05:15:48;21.50;90.10
7044;DHT22;57890;52.36301240;9.76001620;2022-08-03T05:18:15;21.50;90.10
7044;DHT22;57890;52.36301240;9.76001620;2022-08-03T05:20:43;21.50;90.10
7044;DHT22;57890;52.36301240;9.76001620;2022-08-03T05:23:10;21.60;90.40
7044;DHT22;57890;52.36301240;9.76001620;2022-08-03T05:25:37;21.60;90.10
7044;DHT22;57890;52.36301240;9.76001620;2022-08-03T05:28:04;21.60;90.00
7044;DHT22;57890;52.36301240;9.76001620;2022-08-03T05:30:30;21.60;90.00
7044;DHT22;57890;52.36301240;9.76001620;2022-08-03T05:32:57;21.70;90.10
7044;DHT22;57890;52.36301240;9.76001620;2022-08-03T05:35:25;21.70;90.10
7044;DHT22;57890;52.36301240;9.76001620;2022-08-03T05:37:54;21.70;90.10
7044;DHT22;57890;52.36301240;9.76001620;2022-08-03T05:40:21;21.70;90.40
7044;DHT22;57890;52.36301240;9.76001620;2022-08-03T05:42:48;21.80;90.10
7044;DHT22;57890;52.36301240;9.76001620;2022-08-03T05:45:15;21.80;90.10
7044;DHT22;57890;52.36301240;9.76001620;2022-08-03T05:47:43;21.80;90.00
7044;DHT22;57890;52.36301240;9.76001620;2022-08-03T05:50:10;21.90;90.10
7044;DHT22;57890;52.36301240;9.76001620;2022-08-03T05:52:37;21.90;90.00
7044;DHT22;57890;52.36301240;9.76001620;2022-08-03T05:55:07;21.90;90.00
7044;DHT22;57890;52.36301240;9.76001620;2022-08-03T05:57:34;22.00;90.00
7044;DHT22;57890;52.36301240;9.76001620;2022-08-03T06:00:02;22.00;90.00
7044;DHT22;57890;52.36301240;9.76001620;2022-08-03T06:02:37;22.00;90.00
7044;DHT22;57890;52.36301240;9.76001620;2022-08-03T06:05:05;22.00;90.00
7044;DHT22;57890;52.36301240;9.76001620;2022-08-03T06:07:33;22.10;90.00
7044;DHT22;57890;52.36301240;9.76001620;2022-08-03T06:10:00;22.10;90.00
7044;DHT22;57890;52.36301240;9.76001620;2022-08-03T06:12:29;22.10;90.30
7044;DHT22;57890;52.36301240;9.76001620;2022-08-03T06:14:55;22.10;90.00
7044;DHT22;57890;52.36301240;9.76001620;2022-08-03T06:17:23;22.20;90.00
7044;DHT22;57890;52.36301240;9.76001620;2022-08-03T06:19:51;22.20;90.00
7044;DHT22;57890;52.36301240;9.76001620;2022-08-03T06:22:18;22.20;90.10
7044;DHT22;57890;52.36301240;9.76001620;2022-08-03T06:24:45;22.30;90.10
7044;DHT22;57890;52.36301240;9.76001620;2022-08-03T06:27:11;22.30;90.10
7044;DHT22;57890;52.36301240;9.76001620;2022-08-03T06:29:40;22.30;90.10
7044;DHT22;57890;52.36301240;9.76001620;2022-08-03T06:32:07;22.30;90.10
7044;DHT22;57890;52.36301240;9.76001620;2022-08-03T06:34:33;22.40;90.20
7044;DHT22;57890;52.36301240;9.76001620;2022-08-03T06:37:00;22.40;90.20
7044;DHT22;57890;52.36301240;9.76001620;2022-08-03T06:39:27;22.50;90.10
7044;DHT22;57890;52.36301240;9.76001620;2022-08-03T06:41:54;22.50;90.10
7044;DHT22;57890;52.36301240;9.76001620;2022-08-03T06:44:21;22.60;90.10
7044;DHT22;57890;52.36301240;9.76001620;2022-08-03T06:46:49;22.60;90.10
7044;DHT22;57890;52.36301240;9.76001620;2022-08-03T06:49:17;22.70;90.10
7044;DHT22;57890;52.36301240;9.76001620;2022-08-03T06:51:44;22.70;90.00
7044;DHT22;57890;52.36301240;9.76001620;2022-08-03T06:54:11;22.70;90.00
7044;DHT22;57890;52.36301240;9.76001620;2022-08-03T06:56:37;22.70;90.00
7044;DHT22;57890;52.36301240;9.76001620;2022-08-03T06:59:04;22.80;90.10
7044;DHT22;57890;52.36301240;9.76001620;2022-08-03T07:01:31;22.80;90.20
7044;DHT22;57890;52.36301240;9.76001620;2022-08-03T07:03:59;22.80;90.30
7044;DHT22;57890;52.36301240;9.76001620;2022-08-03T07:06:26;22.80;90.30
7044;DHT22;57890;52.36301240;9.76001620;2022-08-03T07:08:53;22.90;90.40
7044;DHT22;57890;52.36301240;9.76001620;2022-08-03T07:11:21;22.90;90.30
7044;DHT22;57890;52.36301240;9.76001620;2022-08-03T07:13:47;22.90;90.30
7044;DHT22;57890;52.36301240;9.76001620;2022-08-03T07:16:14;23.00;90.30
7044;DHT22;57890;52.36301240;9.76001620;2022-08-03T07:18:41;23.00;90.30
7044;DHT22;57890;52.36301240;9.76001620;2022-08-03T07:21:09;23.00;90.20
7044;DHT22;57890;52.36301240;9.76001620;2022-08-03T07:23:37;23.10;90.20
7044;DHT22;57890;52.36301240;9.76001620;2022-08-03T07:26:04;23.10;90.30
7044;DHT22;57890;52.36301240;9.76001620;2022-08-03T07:28:31;23.10;90.30
7044;DHT22;57890;52.36301240;9.76001620;2022-08-03T07:30:57;23.10;90.30
7044;DHT22;57890;52.36301240;9.76001620;2022-08-03T07:33:25;23.10;90.30
7044;DHT22;57890;52.36301240;9.76001620;2022-08-03T07:35:51;23.20;90.30
7044;DHT22;57890;52.36301240;9.76001620;2022-08-03T07:38:20;23.20;90.30
7044;DHT22;57890;52.36301240;9.76001620;2022-08-03T07:40:47;23.20;90.30
7044;DHT22;57890;52.36301240;9.76001620;2022-08-03T07:43:14;23.20;90.40
7044;DHT22;57890;52.36301240;9.76001620;2022-08-03T07:45:42;23.30;90.40
7044;DHT22;57890;52.36301240;9.76001620;2022-08-03T07:48:09;23.30;90.40
7044;DHT22;57890;52.36301240;9.76001620;2022-08-03T07:50:35;23.30;90.40
7044;DHT22;57890;52.36301240;9.76001620;2022-08-03T07:53:02;23.40;90.50
7044;DHT22;57890;52.36301240;9.76001620;2022-08-03T07:55:30;23.40;90.50
7044;DHT22;57890;52.36301240;9.76001620;2022-08-03T07:58:02;23.40;90.50
7044;DHT22;57890;52.36301240;9.76001620;2022-08-03T08:00:29;23.50;90.40
7044;DHT22;57890;52.36301240;9.76001620;2022-08-03T08:02:56;23.50;90.40
7044;DHT22;57890;52.36301240;9.76001620;2022-08-03T08:05:23;23.60;90.50
7044;DHT22;57890;52.36301240;9.76001620;2022-08-03T08:07:50;23.60;90.50
7044;DHT22;57890;52.36301240;9.76001620;2022-08-03T08:10:17;23.70;90.50
7044;DHT22;57890;52.36301240;9.76001620;2022-08-03T08:12:45;23.70;90.60
7044;DHT22;57890;52.36301240;9.76001620;2022-08-03T08:15:12;23.70;90.50
7044;DHT22;57890;52.36301240;9.76001620;2022-08-03T08:17:43;23.70;90.50
7044;DHT22;57890;52.36301240;9.76001620;2022-08-03T08:20:13;23.70;90.50
7044;DHT22;57890;52.36301240;9.76001620;2022-08-03T08:22:40;23.80;90.60
7044;DHT22;57890;52.36301240;9.76001620;2022-08-03T08:25:08;23.80;90.50
7044;DHT22;57890;52.36301240;9.76001620;2022-08-03T08:27:40;23.80;90.60
7044;DHT22;57890;52.36301240;9.76001620;2022-08-03T08:30:10;23.90;90.60
7044;DHT22;57890;52.36301240;9.76001620;2022-08-03T08:32:37;23.90;90.50
7044;DHT22;57890;52.36301240;9.76001620;2022-08-03T08:35:04;23.90;90.50
7044;DHT22;57890;52.36301240;9.76001620;2022-08-03T08:37:32;23.90;90.50
7044;DHT22;57890;52.36301240;9.76001620;2022-08-03T08:39:59;24.00;90.50
7044;DHT22;57890;52.36301240;9.76001620;2022-08-03T08:42:25;23.90;90.50
7044;DHT22;57890;52.36301240;9.76001620;2022-08-03T08:44:53;24.00;90.50
7044;DHT22;57890;52.36301240;9.76001620;2022-08-03T08:47:23;24.10;90.40
7044;DHT22;57890;52.36301240;9.76001620;2022-08-03T08:49:52;24.10;90.30
7044;DHT22;57890;52.36301240;9.76001620;2022-08-03T08:52:24;24.20;90.20
7044;DHT22;57890;52.36301240;9.76001620;2022-08-03T08:54:54;24.20;90.10
7044;DHT22;57890;52.36301240;9.76001620;2022-08-03T08:57:27;24.30;90.00
7044;DHT22;57890;52.36301240;9.76001620;2022-08-03T08:59:55;24.40;89.80
7044;DHT22;57890;52.36301240;9.76001620;2022-08-03T09:02:24;24.40;89.70
7044;DHT22;57890;52.36301240;9.76001620;2022-08-03T09:04:51;24.40;89.70
7044;DHT22;57890;52.36301240;9.76001620;2022-08-03T09:07:18;24.50;89.70
7044;DHT22;57890;52.36301240;9.76001620;2022-08-03T09:09:45;24.50;89.50
7044;DHT22;57890;52.36301240;9.76001620;2022-08-03T09:12:13;24.50;89.40
7044;DHT22;57890;52.36301240;9.76001620;2022-08-03T09:14:40;24.60;89.30
7044;DHT22;57890;52.36301240;9.76001620;2022-08-03T09:17:07;24.60;89.00
7044;DHT22;57890;52.36301240;9.76001620;2022-08-03T09:19:35;24.70;88.70
7044;DHT22;57890;52.36301240;9.76001620;2022-08-03T09:22:10;24.70;88.70
7044;DHT22;57890;52.36301240;9.76001620;2022-08-03T09:24:38;24.70;88.50
7044;DHT22;57890;52.36301240;9.76001620;2022-08-03T09:27:10;24.80;88.50
7044;DHT22;57890;52.36301240;9.76001620;2022-08-03T09:29:38;24.80;88.20
7044;DHT22;57890;52.36301240;9.76001620;2022-08-03T09:32:11;24.90;88.80
7044;DHT22;57890;52.36301240;9.76001620;2022-08-03T09:34:40;24.90;87.80
7044;DHT22;57890;52.36301240;9.76001620;2022-08-03T09:37:15;25.00;87.80
7044;DHT22;57890;52.36301240;9.76001620;2022-08-03T09:39:42;25.00;87.70
7044;DHT22;57890;52.36301240;9.76001620;2022-08-03T09:42:11;25.10;87.50
7044;DHT22;57890;52.36301240;9.76001620;2022-08-03T09:44:39;25.10;87.40
7044;DHT22;57890;52.36301240;9.76001620;2022-08-03T09:47:07;25.10;87.50
7044;DHT22;57890;52.36301240;9.76001620;2022-08-03T09:49:34;25.10;87.40
7044;DHT22;57890;52.36301240;9.76001620;2022-08-03T09:52:12;25.20;87.30
7044;DHT22;57890;52.36301240;9.76001620;2022-08-03T09:54:40;25.20;87.10
7044;DHT22;57890;52.36301240;9.76001620;2022-08-03T09:57:07;25.20;87.20
7044;DHT22;57890;52.36301240;9.76001620;2022-08-03T09:59:35;25.20;87.00
7044;DHT22;57890;52.36301240;9.76001620;2022-08-03T10:02:01;25.30;87.10
7044;DHT22;57890;52.36301240;9.76001620;2022-08-03T10:04:28;25.30;86.90
7044;DHT22;57890;52.36301240;9.76001620;2022-08-03T10:07:04;25.40;87.00
7044;DHT22;57890;52.36301240;9.76001620;2022-08-03T10:09:32;25.40;86.70
7044;DHT22;57890;52.36301240;9.76001620;2022-08-03T10:12:06;25.40;86.70
7044;DHT22;57890;52.36301240;9.76001620;2022-08-03T10:14:36;25.50;86.70
7044;DHT22;57890;52.36301240;9.76001620;2022-08-03T10:17:03;25.50;86.50
7044;DHT22;57890;52.36301240;9.76001620;2022-08-03T10:19:33;25.50;86.60
7044;DHT22;57890;52.36301240;9.76001620;2022-08-03T10:22:09;25.50;86.50
7044;DHT22;57890;52.36301240;9.76001620;2022-08-03T10:24:40;25.60;86.30
7044;DHT22;57890;52.36301240;9.76001620;2022-08-03T10:27:10;25.70;86.30
7044;DHT22;57890;52.36301240;9.76001620;2022-08-03T10:29:41;25.70;86.20
7044;DHT22;57890;52.36301240;9.76001620;2022-08-03T10:32:21;25.70;86.10
7044;DHT22;57890;52.36301240;9.76001620;2022-08-03T10:34:50;25.70;85.80
7044;DHT22;57890;52.36301240;9.76001620;2022-08-03T10:37:20;25.80;86.00
7044;DHT22;57890;52.36301240;9.76001620;2022-08-03T10:39:50;25.80;85.80
7044;DHT22;57890;52.36301240;9.76001620;2022-08-03T10:42:23;25.80;85.80
7044;DHT22;57890;52.36301240;9.76001620;2022-08-03T10:45:03;25.80;85.80
7044;DHT22;57890;52.36301240;9.76001620;2022-08-03T10:47:31;25.80;85.50
7044;DHT22;57890;52.36301240;9.76001620;2022-08-03T10:49:59;25.80;85.50
7044;DHT22;57890;52.36301240;9.76001620;2022-08-03T10:52:27;25.80;85.70
7044;DHT22;57890;52.36301240;9.76001620;2022-08-03T10:54:54;25.90;85.70
7044;DHT22;57890;52.36301240;9.76001620;2022-08-03T10:57:47;25.90;85.60
7044;DHT22;57890;52.36301240;9.76001620;2022-08-03T11:00:16;25.90;85.50
7044;DHT22;57890;52.36301240;9.76001620;2022-08-03T11:03:02;25.90;85.70
7044;DHT22;57890;52.36301240;9.76001620;2022-08-03T11:05:32;26.00;85.50
7044;DHT22;57890;52.36301240;9.76001620;2022-08-03T11:08:29;26.00;85.50
7044;DHT22;57890;52.36301240;9.76001620;2022-08-03T11:10:59;26.00;85.20
7044;DHT22;57890;52.36301240;9.76001620;2022-08-03T11:13:27;26.10;85.60
7044;DHT22;57890;52.36301240;9.76001620;2022-08-03T11:15:59;26.10;85.50
7044;DHT22;57890;52.36301240;9.76001620;2022-08-03T11:18:26;26.10;85.50
7044;DHT22;57890;52.36301240;9.76001620;2022-08-03T11:20:54;26.10;85.40
7044;DHT22;57890;52.36301240;9.76001620;2022-08-03T11:23:41;26.10;85.30
7044;DHT22;57890;52.36301240;9.76001620;2022-08-03T11:26:13;26.10;85.20
7044;DHT22;57890;52.36301240;9.76001620;2022-08-03T11:28:41;26.20;85.40
7044;DHT22;57890;52.36301240;9.76001620;2022-08-03T11:34:22;26.30;85.00
7044;DHT22;57890;52.36301240;9.76001620;2022-08-03T11:37:18;26.20;85.10
7044;DHT22;57890;52.36301240;9.76001620;2022-08-03T11:39:52;26.30;84.80
7044;DHT22;57890;52.36301240;9.76001620;2022-08-03T11:42:40;26.30;85.00
7044;DHT22;57890;52.36301240;9.76001620;2022-08-03T11:45:09;26.40;84.60
7044;DHT22;57890;52.36301240;9.76001620;2022-08-03T11:47:38;26.40;85.00
7044;DHT22;57890;52.36301240;9.76001620;2022-08-03T11:50:06;26.40;84.80
7044;DHT22;57890;52.36301240;9.76001620;2022-08-03T11:52:35;26.50;84.30
7044;DHT22;57890;52.36301240;9.76001620;2022-08-03T11:55:11;26.60;84.10
7044;DHT22;57890;52.36301240;9.76001620;2022-08-03T11:57:39;26.80;83.60
7044;DHT22;57890;52.36301240;9.76001620;2022-08-03T12:00:26;26.80;83.40
7044;DHT22;57890;52.36301240;9.76001620;2022-08-03T12:03:00;26.90;82.40
7044;DHT22;57890;52.36301240;9.76001620;2022-08-03T12:05:35;27.00;82.70
7044;DHT22;57890;52.36301240;9.76001620;2022-08-03T12:08:03;27.10;82.50
7044;DHT22;57890;52.36301240;9.76001620;2022-08-03T12:10:31;27.20;82.50
7044;DHT22;57890;52.36301240;9.76001620;2022-08-03T12:12:59;27.20;82.50
7044;DHT22;57890;52.36301240;9.76001620;2022-08-03T12:15:28;27.30;82.10
7044;DHT22;57890;52.36301240;9.76001620;2022-08-03T12:17:55;27.40;81.90
7044;DHT22;57890;52.36301240;9.76001620;2022-08-03T12:20:25;27.40;81.90
7044;DHT22;57890;52.36301240;9.76001620;2022-08-03T12:22:52;27.40;81.80
7044;DHT22;57890;52.36301240;9.76001620;2022-08-03T12:25:21;27.40;81.90
7044;DHT22;57890;52.36301240;9.76001620;2022-08-03T12:27:51;27.40;81.90
7044;DHT22;57890;52.36301240;9.76001620;2022-08-03T12:30:18;27.60;81.60
7044;DHT22;57890;52.36301240;9.76001620;2022-08-03T12:32:45;27.60;81.50
7044;DHT22;57890;52.36301240;9.76001620;2022-08-03T12:35:20;27.60;81.50
7044;DHT22;57890;52.36301240;9.76001620;2022-08-03T12:37:49;27.70;81.30
7044;DHT22;57890;52.36301240;9.76001620;2022-08-03T12:40:23;27.70;81.30
7044;DHT22;57890;52.36301240;9.76001620;2022-08-03T12:42:52;27.90;81.20
7044;DHT22;57890;52.36301240;9.76001620;2022-08-03T12:45:20;27.90;81.50
7044;DHT22;57890;52.36301240;9.76001620;2022-08-03T12:47:54;27.90;81.40
7044;DHT22;57890;52.36301240;9.76001620;2022-08-03T12:50:29;27.90;81.30
7044;DHT22;57890;52.36301240;9.76001620;2022-08-03T12:52:57;27.90;81.40
7044;DHT22;57890;52.36301240;9.76001620;2022-08-03T12:55:25;28.00;81.40
7044;DHT22;57890;52.36301240;9.76001620;2022-08-03T12:57:59;28.10;81.40
7044;DHT22;57890;52.36301240;9.76001620;2022-08-03T13:00:26;28.20;81.30
7044;DHT22;57890;52.36301240;9.76001620;2022-08-03T13:02:59;28.30;81.20
7044;DHT22;57890;52.36301240;9.76001620;2022-08-03T13:05:26;28.50;81.30
7044;DHT22;57890;52.36301240;9.76001620;2022-08-03T13:07:53;28.70;81.50
7044;DHT22;57890;52.36301240;9.76001620;2022-08-03T13:10:28;29.40;81.20
7044;DHT22;57890;52.36301240;9.76001620;2022-08-03T13:12:56;30.60;80.00
7044;DHT22;57890;52.36301240;9.76001620;2022-08-03T13:15:26;31.70;78.90
7044;DHT22;57890;52.36301240;9.76001620;2022-08-03T13:17:54;32.60;77.60
7044;DHT22;57890;52.36301240;9.76001620;2022-08-03T13:20:21;33.50;76.60
7044;DHT22;57890;52.36301240;9.76001620;2022-08-03T13:22:49;34.30;75.60
7044;DHT22;57890;52.36301240;9.76001620;2022-08-03T13:25:16;35.10;74.40
7044;DHT22;57890;52.36301240;9.76001620;2022-08-03T13:27:43;35.90;73.30
7044;DHT22;57890;52.36301240;9.76001620;2022-08-03T13:30:10;36.70;72.30
7044;DHT22;57890;52.36301240;9.76001620;2022-08-03T13:32:38;37.50;70.90
7044;DHT22;57890;52.36301240;9.76001620;2022-08-03T13:35:06;38.20;69.80
7044;DHT22;57890;52.36301240;9.76001620;2022-08-03T13:37:33;38.80;68.50
7044;DHT22;57890;52.36301240;9.76001620;2022-08-03T13:40:01;39.60;67.40
7044;DHT22;57890;52.36301240;9.76001620;2022-08-03T13:42:29;40.30;66.00
7044;DHT22;57890;52.36301240;9.76001620;2022-08-03T13:44:56;40.90;64.50
7044;DHT22;57890;52.36301240;9.76001620;2022-08-03T13:47:23;41.40;63.40
7044;DHT22;57890;52.36301240;9.76001620;2022-08-03T13:49:51;41.70;61.60